Fairbanks, AK

1:44 AM AKST on December 18, 2014 (GMT -0900)
AKDOT 14th Avenue @ Eielson Street | Change Station
CLOSE
Current Station
Personal Weather Station
Location: Fairbanks, AK
Elevation: 482 ft
Nearby Weather Stations

Elev 482 ft 64.84 °N, 147.71 °W | Updated 53 minutes ago

Overcast
Overcast
18 °F
Feels Like 18 °F
N
1
Wind Variable Wind from SE
Gusts 1.0 mph

Today
High -- | Low -- °F
--% Chance of Precip.
Yesterday
High -- | Low -- °F
Precip. -- in
10:55 AM 2:39 PM
Waning Crescent, 15% visible
Pressure 29.73 in
Visibility 2.5 miles
Clouds Overcast 800 ft
Windchill 18 °F
Dew Point 16 °F
Humidity 92%
Rainfall -999.00 in
Snow Depth Not available.
UV 0 out of 12
Pollen Not available.
Air Quality Not available.
Flu Activity Not available.
METAR PAFB 180956Z AUTO 00000KT 2 1/2SM BR OVC008 M07/M09 A2969 RMK SLP065 T10671089 VIA AUTODIAL

More Conditions Fewer Conditions

Pressure 29.73 in
Visibility 2.5 miles
Clouds Overcast 800 ft
Windchill 18 °F
Dew Point 16 °F
Humidity 92%
Rainfall -999.00 in
Snow Depth Not available.
UV 0 out of 12
Pollen Not available.
Air Quality Not available.
Flu Activity Not available.
METAR PAFB 180956Z AUTO 00000KT 2 1/2SM BR OVC008 M07/M09 A2969 RMK SLP065 T10671089 VIA AUTODIAL

More Conditions Fewer Conditions

10-Day Weather Forecast

Almanac

Astronomy

Dec. 18, 2014 Rise Set
Actual Time
Civil Twilight
Nautical Twilight
Astronomical Twilight
Moon
Length of Visible Light
Length of Day
Tomorrow will be .
, % of the Moon is Illuminated

Today's Extremes

State Highs State Lows

Community

WunderPhotos

Upload Photos

1,778,917 photos uploaded!

WunderBlogs® & News

Nearby

Air Quality

  Air Quality AQ Index Pollutant
Not available.

Snow Depth

Station Depth Elevation

Earthquake Activity

City Distance Mag. Time & Date
Minimum magnitude displayed is 2.5.

Coastal Water Temperatures

Place Temperature

Nearby Weather Stations